Terminal Aerodrome Forecast
Issued by NWS

Home | Current Version | Previous Version | Text Only | Print | Product List | Glossary On
Versions: 1 2 3 4 5 6 7 8 9 10 11 12 13 14 15 16 17 18 19 20
000
FTUS44 KLZK 050100 AAA
TAFBPK
TAF AMD
KBPK 050131Z 0502/0524 01009KT 2SM -SN BR SCT012 OVC025
      TEMPO 0502/0504 1SM -SN BR OVC012
     FM050400 36009KT 2SM -SN BR OVC005
     FM050800 02005KT 3SM -SN BR OVC012
     FM051200 01005KT P6SM BKN030
     FM051800 35007KT P6SM OVC050=

USA.gov is the U.S. government's official web portal to all federal, state and local government web resources and services.